sensor_id;sensor_type;location;lat;lon;timestamp;P1;durP1;ratioP1;P2;durP2;ratioP2
55346;SDS011;41218;55.700;38.270;2023-02-25T00:00:17;20.07;;;7.87;;
55346;SDS011;41218;55.700;38.270;2023-02-25T00:05:18;23.98;;;8.50;;
55346;SDS011;41218;55.700;38.270;2023-02-25T00:10:18;20.40;;;7.67;;
55346;SDS011;41218;55.700;38.270;2023-02-25T00:15:19;24.15;;;8.07;;
55346;SDS011;41218;55.700;38.270;2023-02-25T00:20:20;27.43;;;9.07;;
55346;SDS011;41218;55.700;38.270;2023-02-25T00:25:21;19.88;;;7.88;;
55346;SDS011;41218;55.700;38.270;2023-02-25T00:30:22;23.20;;;8.77;;
55346;SDS011;41218;55.700;38.270;2023-02-25T00:35:22;22.47;;;8.67;;
55346;SDS011;41218;55.700;38.270;2023-02-25T00:40:23;28.40;;;8.27;;
55346;SDS011;41218;55.700;38.270;2023-02-25T00:45:24;20.83;;;8.00;;
55346;SDS011;41218;55.700;38.270;2023-02-25T00:50:24;20.90;;;7.70;;
55346;SDS011;41218;55.700;38.270;2023-02-25T00:55:25;22.50;;;8.98;;
55346;SDS011;41218;55.700;38.270;2023-02-25T01:00:32;19.30;;;7.55;;
55346;SDS011;41218;55.700;38.270;2023-02-25T01:05:32;27.77;;;8.90;;
55346;SDS011;41218;55.700;38.270;2023-02-25T01:10:33;17.87;;;7.63;;
55346;SDS011;41218;55.700;38.270;2023-02-25T01:15:33;23.70;;;8.57;;
55346;SDS011;41218;55.700;38.270;2023-02-25T01:20:36;25.20;;;8.40;;
55346;SDS011;41218;55.700;38.270;2023-02-25T01:25:39;21.92;;;8.25;;
55346;SDS011;41218;55.700;38.270;2023-02-25T01:35:40;20.20;;;7.07;;
55346;SDS011;41218;55.700;38.270;2023-02-25T01:40:40;24.23;;;8.20;;
55346;SDS011;41218;55.700;38.270;2023-02-25T01:45:42;22.57;;;8.47;;
55346;SDS011;41218;55.700;38.270;2023-02-25T01:50:51;22.98;;;8.55;;
55346;SDS011;41218;55.700;38.270;2023-02-25T01:55:55;23.02;;;7.68;;
55346;SDS011;41218;55.700;38.270;2023-02-25T02:00:57;23.23;;;8.07;;
55346;SDS011;41218;55.700;38.270;2023-02-25T02:11:06;23.00;;;8.35;;
55346;SDS011;41218;55.700;38.270;2023-02-25T02:16:19;22.52;;;7.70;;
55346;SDS011;41218;55.700;38.270;2023-02-25T02:22:11;17.65;;;7.47;;
55346;SDS011;41218;55.700;38.270;2023-02-25T02:42:55;21.20;;;7.75;;
55346;SDS011;41218;55.700;38.270;2023-02-25T02:47:58;22.10;;;8.85;;
55346;SDS011;41218;55.700;38.270;2023-02-25T02:53:05;25.25;;;8.77;;
55346;SDS011;41218;55.700;38.270;2023-02-25T02:58:16;20.73;;;7.85;;
55346;SDS011;41218;55.700;38.270;2023-02-25T03:03:22;21.35;;;8.20;;
55346;SDS011;41218;55.700;38.270;2023-02-25T03:08:38;22.85;;;7.93;;
55346;SDS011;41218;55.700;38.270;2023-02-25T03:13:43;21.95;;;7.30;;
55346;SDS011;41218;55.700;38.270;2023-02-25T03:18:52;23.48;;;8.10;;
55346;SDS011;41218;55.700;38.270;2023-02-25T03:24:38;25.95;;;9.10;;
55346;SDS011;41218;55.700;38.270;2023-02-25T03:29:42;28.80;;;8.70;;
55346;SDS011;41218;55.700;38.270;2023-02-25T03:34:43;24.60;;;9.07;;
55346;SDS011;41218;55.700;38.270;2023-02-25T03:39:49;22.17;;;8.43;;
55346;SDS011;41218;55.700;38.270;2023-02-25T03:44:55;22.02;;;8.85;;
55346;SDS011;41218;55.700;38.270;2023-02-25T03:55:20;24.02;;;7.93;;
55346;SDS011;41218;55.700;38.270;2023-02-25T04:00:22;20.93;;;8.43;;
55346;SDS011;41218;55.700;38.270;2023-02-25T04:05:25;22.02;;;7.80;;
55346;SDS011;41218;55.700;38.270;2023-02-25T04:10:26;20.77;;;7.85;;
55346;SDS011;41218;55.700;38.270;2023-02-25T04:15:27;23.07;;;8.87;;
55346;SDS011;41218;55.700;38.270;2023-02-25T04:20:28;22.27;;;8.52;;
55346;SDS011;41218;55.700;38.270;2023-02-25T04:25:29;19.55;;;8.15;;
55346;SDS011;41218;55.700;38.270;2023-02-25T04:30:29;17.63;;;8.00;;
55346;SDS011;41218;55.700;38.270;2023-02-25T04:35:30;23.20;;;8.40;;
55346;SDS011;41218;55.700;38.270;2023-02-25T04:40:31;23.40;;;7.40;;
55346;SDS011;41218;55.700;38.270;2023-02-25T04:45:31;24.13;;;7.77;;
55346;SDS011;41218;55.700;38.270;2023-02-25T04:50:32;21.60;;;8.33;;
55346;SDS011;41218;55.700;38.270;2023-02-25T04:55:34;19.95;;;7.82;;
55346;SDS011;41218;55.700;38.270;2023-02-25T05:00:35;19.52;;;6.95;;
55346;SDS011;41218;55.700;38.270;2023-02-25T05:05:35;22.23;;;8.13;;
55346;SDS011;41218;55.700;38.270;2023-02-25T05:10:36;20.03;;;7.87;;
55346;SDS011;41218;55.700;38.270;2023-02-25T05:15:36;17.63;;;8.23;;
55346;SDS011;41218;55.700;38.270;2023-02-25T05:20:40;16.57;;;6.60;;
55346;SDS011;41218;55.700;38.270;2023-02-25T05:25:42;22.80;;;8.10;;
55346;SDS011;41218;55.700;38.270;2023-02-25T05:30:43;22.47;;;8.17;;
55346;SDS011;41218;55.700;38.270;2023-02-25T05:35:43;20.13;;;7.67;;
55346;SDS011;41218;55.700;38.270;2023-02-25T05:40:44;23.43;;;7.83;;
55346;SDS011;41218;55.700;38.270;2023-02-25T05:45:51;23.53;;;7.63;;
55346;SDS011;41218;55.700;38.270;2023-02-25T05:50:58;20.35;;;7.13;;
55346;SDS011;41218;55.700;38.270;2023-02-25T05:56:04;20.98;;;7.78;;
55346;SDS011;41218;55.700;38.270;2023-02-25T06:01:10;21.30;;;7.38;;
55346;SDS011;41218;55.700;38.270;2023-02-25T06:06:13;22.95;;;7.82;;
55346;SDS011;41218;55.700;38.270;2023-02-25T06:11:17;19.58;;;6.88;;
55346;SDS011;41218;55.700;38.270;2023-02-25T06:16:21;18.40;;;7.32;;
55346;SDS011;41218;55.700;38.270;2023-02-25T06:21:24;19.63;;;7.47;;
55346;SDS011;41218;55.700;38.270;2023-02-25T06:26:25;20.42;;;8.07;;
55346;SDS011;41218;55.700;38.270;2023-02-25T06:31:26;18.10;;;7.32;;
55346;SDS011;41218;55.700;38.270;2023-02-25T06:36:26;20.27;;;6.93;;
55346;SDS011;41218;55.700;38.270;2023-02-25T06:41:28;16.60;;;7.13;;
55346;SDS011;41218;55.700;38.270;2023-02-25T06:46:29;19.88;;;7.97;;
55346;SDS011;41218;55.700;38.270;2023-02-25T06:51:29;24.23;;;8.03;;
55346;SDS011;41218;55.700;38.270;2023-02-25T06:56:30;22.63;;;8.20;;
55346;SDS011;41218;55.700;38.270;2023-02-25T07:01:30;17.87;;;7.67;;
55346;SDS011;41218;55.700;38.270;2023-02-25T07:06:31;16.97;;;6.53;;
55346;SDS011;41218;55.700;38.270;2023-02-25T07:11:32;18.07;;;7.33;;
55346;SDS011;41218;55.700;38.270;2023-02-25T07:16:34;15.02;;;6.40;;
55346;SDS011;41218;55.700;38.270;2023-02-25T07:21:35;16.93;;;6.90;;
55346;SDS011;41218;55.700;38.270;2023-02-25T07:26:37;17.40;;;6.82;;
55346;SDS011;41218;55.700;38.270;2023-02-25T07:31:38;19.25;;;6.60;;
55346;SDS011;41218;55.700;38.270;2023-02-25T07:36:39;14.75;;;6.70;;
55346;SDS011;41218;55.700;38.270;2023-02-25T07:41:40;14.80;;;6.72;;
55346;SDS011;41218;55.700;38.270;2023-02-25T07:46:40;17.20;;;6.80;;
55346;SDS011;41218;55.700;38.270;2023-02-25T07:51:41;15.90;;;6.17;;
55346;SDS011;41218;55.700;38.270;2023-02-25T07:56:41;15.40;;;6.50;;
55346;SDS011;41218;55.700;38.270;2023-02-25T08:01:42;16.38;;;6.35;;
55346;SDS011;41218;55.700;38.270;2023-02-25T08:06:43;14.93;;;6.20;;
55346;SDS011;41218;55.700;38.270;2023-02-25T08:11:45;16.55;;;6.43;;
55346;SDS011;41218;55.700;38.270;2023-02-25T08:16:45;15.33;;;6.17;;
55346;SDS011;41218;55.700;38.270;2023-02-25T08:21:46;13.65;;;5.70;;
55346;SDS011;41218;55.700;38.270;2023-02-25T08:26:47;12.82;;;5.60;;
55346;SDS011;41218;55.700;38.270;2023-02-25T08:31:49;12.68;;;5.78;;
55346;SDS011;41218;55.700;38.270;2023-02-25T08:36:50;12.20;;;5.43;;
55346;SDS011;41218;55.700;38.270;2023-02-25T08:41:51;14.30;;;5.73;;
55346;SDS011;41218;55.700;38.270;2023-02-25T08:46:51;12.63;;;6.10;;
55346;SDS011;41218;55.700;38.270;2023-02-25T08:51:52;11.70;;;5.43;;
55346;SDS011;41218;55.700;38.270;2023-02-25T08:56:52;11.37;;;5.60;;
55346;SDS011;41218;55.700;38.270;2023-02-25T09:01:54;12.68;;;5.20;;
55346;SDS011;41218;55.700;38.270;2023-02-25T09:06:55;14.80;;;5.57;;
55346;SDS011;41218;55.700;38.270;2023-02-25T09:11:57;12.77;;;5.88;;
55346;SDS011;41218;55.700;38.270;2023-02-25T09:16:58;11.73;;;5.57;;
55346;SDS011;41218;55.700;38.270;2023-02-25T09:21:58;10.67;;;5.60;;
55346;SDS011;41218;55.700;38.270;2023-02-25T09:26:59;13.10;;;5.30;;
55346;SDS011;41218;55.700;38.270;2023-02-25T09:32:07;11.15;;;5.05;;
55346;SDS011;41218;55.700;38.270;2023-02-25T09:37:15;13.13;;;5.68;;
55346;SDS011;41218;55.700;38.270;2023-02-25T09:42:19;11.40;;;4.78;;
55346;SDS011;41218;55.700;38.270;2023-02-25T09:47:32;11.82;;;5.70;;
55346;SDS011;41218;55.700;38.270;2023-02-25T09:52:41;12.75;;;5.45;;
55346;SDS011;41218;55.700;38.270;2023-02-25T09:57:52;12.68;;;5.90;;
55346;SDS011;41218;55.700;38.270;2023-02-25T10:03:01;12.23;;;5.80;;
55346;SDS011;41218;55.700;38.270;2023-02-25T10:23:57;11.63;;;5.07;;
55346;SDS011;41218;55.700;38.270;2023-02-25T10:29:15;11.57;;;5.47;;
55346;SDS011;41218;55.700;38.270;2023-02-25T10:34:23;12.65;;;5.88;;
55346;SDS011;41218;55.700;38.270;2023-02-25T10:39:25;13.63;;;6.00;;
55346;SDS011;41218;55.700;38.270;2023-02-25T10:44:27;13.68;;;5.88;;
55346;SDS011;41218;55.700;38.270;2023-02-25T10:49:28;15.27;;;5.60;;
55346;SDS011;41218;55.700;38.270;2023-02-25T10:54:33;12.15;;;4.85;;
55346;SDS011;41218;55.700;38.270;2023-02-25T10:59:43;10.43;;;5.32;;
55346;SDS011;41218;55.700;38.270;2023-02-25T11:04:45;9.82;;;4.80;;
55346;SDS011;41218;55.700;38.270;2023-02-25T11:09:46;12.25;;;5.00;;
55346;SDS011;41218;55.700;38.270;2023-02-25T11:14:46;10.37;;;5.30;;
55346;SDS011;41218;55.700;38.270;2023-02-25T11:19:51;11.10;;;5.23;;
55346;SDS011;41218;55.700;38.270;2023-02-25T11:24:59;10.40;;;4.82;;
55346;SDS011;41218;55.700;38.270;2023-02-25T11:35:16;9.02;;;4.53;;
55346;SDS011;41218;55.700;38.270;2023-02-25T11:45:33;8.82;;;4.50;;
55346;SDS011;41218;55.700;38.270;2023-02-25T11:50:49;9.48;;;4.75;;
55346;SDS011;41218;55.700;38.270;2023-02-25T12:54:53;8.73;;;4.45;;
55346;SDS011;41218;55.700;38.270;2023-02-25T13:59:59;7.57;;;4.20;;
55346;SDS011;41218;55.700;38.270;2023-02-25T14:32:31;8.40;;;4.38;;
55346;SDS011;41218;55.700;38.270;2023-02-25T14:43:16;11.13;;;4.82;;
55346;SDS011;41218;55.700;38.270;2023-02-25T14:58:52;11.57;;;5.20;;
55346;SDS011;41218;55.700;38.270;2023-02-25T15:04:24;9.85;;;4.55;;
55346;SDS011;41218;55.700;38.270;2023-02-25T15:40:45;14.48;;;5.38;;
55346;SDS011;41218;55.700;38.270;2023-02-25T15:45:50;10.05;;;4.90;;
55346;SDS011;41218;55.700;38.270;2023-02-25T15:50:52;10.88;;;4.68;;
55346;SDS011;41218;55.700;38.270;2023-02-25T16:11:19;12.45;;;5.40;;
55346;SDS011;41218;55.700;38.270;2023-02-25T16:16:24;9.52;;;5.15;;
55346;SDS011;41218;55.700;38.270;2023-02-25T16:26:52;13.80;;;5.50;;
55346;SDS011;41218;55.700;38.270;2023-02-25T16:31:56;17.52;;;5.90;;
55346;SDS011;41218;55.700;38.270;2023-02-25T16:42:09;17.75;;;7.05;;
55346;SDS011;41218;55.700;38.270;2023-02-25T16:47:23;17.05;;;7.07;;
55346;SDS011;41218;55.700;38.270;2023-02-25T16:52:30;17.08;;;7.72;;
55346;SDS011;41218;55.700;38.270;2023-02-25T16:57:33;16.70;;;7.20;;
55346;SDS011;41218;55.700;38.270;2023-02-25T17:02:36;18.33;;;7.07;;
55346;SDS011;41218;55.700;38.270;2023-02-25T17:07:55;20.02;;;7.78;;
55346;SDS011;41218;55.700;38.270;2023-02-25T17:13:00;15.50;;;7.57;;
55346;SDS011;41218;55.700;38.270;2023-02-25T17:18:07;19.05;;;7.72;;
55346;SDS011;41218;55.700;38.270;2023-02-25T17:23:14;21.10;;;8.27;;
55346;SDS011;41218;55.700;38.270;2023-02-25T17:28:27;18.75;;;7.38;;
55346;SDS011;41218;55.700;38.270;2023-02-25T17:33:30;18.35;;;6.97;;
55346;SDS011;41218;55.700;38.270;2023-02-25T17:38:31;21.70;;;8.25;;
55346;SDS011;41218;55.700;38.270;2023-02-25T17:43:33;20.08;;;7.88;;
55346;SDS011;41218;55.700;38.270;2023-02-25T17:48:33;17.83;;;7.75;;
55346;SDS011;41218;55.700;38.270;2023-02-25T17:58:44;21.55;;;7.82;;
55346;SDS011;41218;55.700;38.270;2023-02-25T18:03:45;18.20;;;8.10;;
55346;SDS011;41218;55.700;38.270;2023-02-25T18:08:50;22.30;;;7.65;;
55346;SDS011;41218;55.700;38.270;2023-02-25T18:13:53;26.73;;;8.32;;
55346;SDS011;41218;55.700;38.270;2023-02-25T18:18:54;21.20;;;8.18;;
55346;SDS011;41218;55.700;38.270;2023-02-25T18:23:55;21.20;;;8.40;;
55346;SDS011;41218;55.700;38.270;2023-02-25T18:28:58;24.73;;;9.15;;
55346;SDS011;41218;55.700;38.270;2023-02-25T18:33:59;31.08;;;10.90;;
55346;SDS011;41218;55.700;38.270;2023-02-25T18:39:01;26.77;;;9.83;;
55346;SDS011;41218;55.700;38.270;2023-02-25T18:44:07;30.00;;;10.27;;
55346;SDS011;41218;55.700;38.270;2023-02-25T18:49:12;33.15;;;10.65;;
55346;SDS011;41218;55.700;38.270;2023-02-25T18:54:13;33.97;;;10.77;;
55346;SDS011;41218;55.700;38.270;2023-02-25T18:59:17;35.78;;;12.05;;
55346;SDS011;41218;55.700;38.270;2023-02-25T19:04:17;36.50;;;11.90;;
55346;SDS011;41218;55.700;38.270;2023-02-25T19:09:18;32.38;;;11.98;;
55346;SDS011;41218;55.700;38.270;2023-02-25T19:14:20;34.53;;;11.95;;
55346;SDS011;41218;55.700;38.270;2023-02-25T19:19:22;34.88;;;12.02;;
55346;SDS011;41218;55.700;38.270;2023-02-25T19:24:23;34.42;;;10.98;;
55346;SDS011;41218;55.700;38.270;2023-02-25T19:29:24;32.15;;;11.23;;
55346;SDS011;41218;55.700;38.270;2023-02-25T19:34:25;32.53;;;11.37;;
55346;SDS011;41218;55.700;38.270;2023-02-25T19:39:25;28.50;;;11.27;;
55346;SDS011;41218;55.700;38.270;2023-02-25T19:44:26;28.95;;;9.80;;
55346;SDS011;41218;55.700;38.270;2023-02-25T19:49:27;30.90;;;10.40;;
55346;SDS011;41218;55.700;38.270;2023-02-25T19:54:28;31.20;;;9.98;;
55346;SDS011;41218;55.700;38.270;2023-02-25T19:59:29;24.50;;;9.60;;
55346;SDS011;41218;55.700;38.270;2023-02-25T20:04:29;24.65;;;8.95;;
55346;SDS011;41218;55.700;38.270;2023-02-25T20:09:30;26.93;;;9.37;;
55346;SDS011;41218;55.700;38.270;2023-02-25T20:14:31;22.57;;;8.80;;
55346;SDS011;41218;55.700;38.270;2023-02-25T20:19:32;22.02;;;8.23;;
55346;SDS011;41218;55.700;38.270;2023-02-25T20:24:33;23.70;;;8.05;;
55346;SDS011;41218;55.700;38.270;2023-02-25T20:29:34;19.57;;;7.77;;
55346;SDS011;41218;55.700;38.270;2023-02-25T20:34:34;24.47;;;8.93;;
55346;SDS011;41218;55.700;38.270;2023-02-25T20:44:39;23.52;;;7.80;;
55346;SDS011;41218;55.700;38.270;2023-02-25T20:49:40;17.77;;;7.35;;
55346;SDS011;41218;55.700;38.270;2023-02-25T20:54:41;20.23;;;7.60;;
55346;SDS011;41218;55.700;38.270;2023-02-25T20:59:42;17.90;;;7.97;;
55346;SDS011;41218;55.700;38.270;2023-02-25T21:04:43;17.55;;;8.20;;
55346;SDS011;41218;55.700;38.270;2023-02-25T21:09:43;18.47;;;7.13;;
55346;SDS011;41218;55.700;38.270;2023-02-25T21:14:44;19.13;;;7.70;;
55346;SDS011;41218;55.700;38.270;2023-02-25T21:19:44;23.30;;;8.07;;
55346;SDS011;41218;55.700;38.270;2023-02-25T21:24:45;20.30;;;8.30;;
55346;SDS011;41218;55.700;38.270;2023-02-25T21:29:45;20.17;;;7.73;;
55346;SDS011;41218;55.700;38.270;2023-02-25T21:34:46;20.47;;;7.80;;
55346;SDS011;41218;55.700;38.270;2023-02-25T21:39:47;18.40;;;8.27;;
55346;SDS011;41218;55.700;38.270;2023-02-25T21:44:47;22.73;;;8.80;;
55346;SDS011;41218;55.700;38.270;2023-02-25T21:49:48;17.93;;;7.57;;
55346;SDS011;41218;55.700;38.270;2023-02-25T21:54:50;20.92;;;8.07;;
55346;SDS011;41218;55.700;38.270;2023-02-25T22:04:52;17.23;;;6.57;;
55346;SDS011;41218;55.700;38.270;2023-02-25T22:09:53;15.13;;;6.50;;
55346;SDS011;41218;55.700;38.270;2023-02-25T22:14:53;17.67;;;6.77;;
55346;SDS011;41218;55.700;38.270;2023-02-25T22:19:54;17.67;;;7.53;;
55346;SDS011;41218;55.700;38.270;2023-02-25T22:24:54;12.47;;;5.37;;
55346;SDS011;41218;55.700;38.270;2023-02-25T22:29:55;15.13;;;6.37;;
55346;SDS011;41218;55.700;38.270;2023-02-25T22:34:56;14.20;;;6.57;;
55346;SDS011;41218;55.700;38.270;2023-02-25T22:39:56;14.33;;;6.20;;
55346;SDS011;41218;55.700;38.270;2023-02-25T22:44:57;18.20;;;7.97;;
55346;SDS011;41218;55.700;38.270;2023-02-25T22:49:57;17.80;;;7.37;;
55346;SDS011;41218;55.700;38.270;2023-02-25T22:54:57;14.07;;;6.27;;
55346;SDS011;41218;55.700;38.270;2023-02-25T22:59:58;17.97;;;7.50;;
55346;SDS011;41218;55.700;38.270;2023-02-25T23:04:58;16.37;;;6.73;;
55346;SDS011;41218;55.700;38.270;2023-02-25T23:09:59;17.23;;;6.70;;
55346;SDS011;41218;55.700;38.270;2023-02-25T23:15:00;19.50;;;6.83;;
55346;SDS011;41218;55.700;38.270;2023-02-25T23:20:01;18.23;;;7.67;;
55346;SDS011;41218;55.700;38.270;2023-02-25T23:25:03;15.70;;;6.18;;
55346;SDS011;41218;55.700;38.270;2023-02-25T23:30:04;20.02;;;7.28;;
55346;SDS011;41218;55.700;38.270;2023-02-25T23:35:07;18.15;;;7.18;;
55346;SDS011;41218;55.700;38.270;2023-02-25T23:40:08;17.85;;;7.15;;
55346;SDS011;41218;55.700;38.270;2023-02-25T23:45:11;17.27;;;7.68;;
55346;SDS011;41218;55.700;38.270;2023-02-25T23:50:13;18.55;;;7.55;;
55346;SDS011;41218;55.700;38.270;2023-02-25T23:55:15;20.25;;;8.52;;
